createdAt,value
2023-01-05T00:03:14.199Z,7.48
2023-01-05T00:08:13.607Z,7.54
2023-01-05T00:13:31.261Z,7.41
2023-01-05T00:18:47.444Z,7.54
2023-01-05T00:23:47.370Z,7.37
2023-01-05T00:28:47.549Z,7.59
2023-01-05T00:33:46.333Z,7.33
2023-01-05T00:38:45.205Z,7.17
2023-01-05T00:43:44.069Z,7.01
2023-01-05T00:48:44.356Z,7.05
2023-01-05T00:53:43.122Z,6.97
2023-01-05T00:58:41.867Z,6.98
2023-01-05T01:03:41.489Z,7.30
2023-01-05T01:08:42.646Z,7.38
2023-01-05T01:13:41.397Z,7.44
2023-01-05T01:18:40.467Z,7.22
2023-01-05T01:23:39.295Z,7.24
2023-01-05T01:28:40.200Z,7.31
2023-01-05T01:33:40.832Z,7.11
2023-01-05T01:38:39.875Z,7.39
2023-01-05T01:43:46.262Z,7.55
2023-01-05T01:48:52.163Z,7.65
2023-01-05T01:53:54.015Z,7.46
2023-01-05T01:58:55.418Z,7.51
2023-01-05T02:03:55.223Z,7.29
2023-01-05T02:08:54.847Z,7.36
2023-01-05T02:14:09.164Z,7.38
2023-01-05T02:19:36.989Z,7.35
2023-01-05T02:24:52.805Z,7.45
2023-01-05T02:30:16.379Z,7.59
2023-01-05T02:35:28.509Z,7.64
2023-01-05T02:40:33.214Z,7.59
2023-01-05T02:45:32.527Z,7.46
2023-01-05T02:50:39.799Z,7.15
2023-01-05T02:55:46.540Z,7.29
2023-01-05T03:00:51.938Z,7.45
2023-01-05T03:05:59.665Z,7.26
2023-01-05T03:11:20.564Z,7.36
2023-01-05T03:16:26.548Z,7.21
2023-01-05T03:21:30.733Z,7.20
2023-01-05T03:26:50.331Z,7.31
2023-01-05T03:32:10.220Z,7.41
2023-01-05T03:37:16.675Z,7.21
2023-01-05T03:42:17.333Z,7.24
2023-01-05T03:47:16.501Z,7.11
2023-01-05T03:52:17.992Z,7.02
2023-01-05T03:57:17.445Z,7.20
2023-01-05T04:02:17.082Z,7.29
2023-01-05T04:07:18.649Z,7.44
2023-01-05T04:12:17.652Z,7.59
2023-01-05T04:17:17.584Z,7.15
2023-01-05T04:22:23.671Z,7.46
2023-01-05T04:27:27.187Z,7.44
2023-01-05T04:32:26.111Z,7.51
2023-01-05T04:37:27.144Z,7.53
2023-01-05T04:42:26.502Z,7.70
2023-01-05T04:47:27.308Z,7.62
2023-01-05T04:52:29.285Z,7.86
2023-01-05T04:57:28.856Z,7.81
2023-01-05T05:02:28.084Z,7.93
2023-01-05T05:07:28.584Z,7.92
2023-01-05T05:12:27.471Z,7.95
2023-01-05T05:17:26.428Z,8.05
2023-01-05T05:22:26.507Z,7.78
2023-01-05T05:27:26.764Z,7.94
2023-01-05T05:32:27.175Z,7.93
2023-01-05T05:37:25.926Z,8.18
2023-01-05T05:42:26.193Z,8.34
2023-01-05T05:47:25.100Z,8.43
2023-01-05T05:52:24.042Z,8.45
2023-01-05T05:57:22.900Z,8.45
2023-01-05T06:02:23.114Z,8.50
2023-01-05T06:07:21.877Z,8.39
2023-01-05T06:12:20.705Z,8.42
2023-01-05T06:17:19.698Z,8.42
2023-01-05T06:22:19.822Z,8.49
2023-01-05T06:27:18.563Z,8.48
2023-01-05T06:32:17.424Z,8.50
2023-01-05T06:37:16.304Z,8.46
2023-01-05T06:42:23.023Z,8.41
2023-01-05T06:47:22.367Z,8.18
2023-01-05T06:52:21.235Z,8.20
2023-01-05T06:57:21.429Z,8.25
2023-01-05T07:02:20.251Z,8.13
2023-01-05T07:07:19.102Z,8.36
2023-01-05T07:12:18.064Z,8.21
2023-01-05T07:17:18.301Z,8.13
2023-01-05T07:22:16.989Z,8.30
2023-01-05T07:27:15.761Z,8.36
2023-01-05T07:32:14.527Z,8.21
2023-01-05T07:37:14.667Z,8.41
2023-01-05T07:42:13.503Z,8.53
2023-01-05T07:47:13.538Z,8.37
2023-01-05T07:52:12.321Z,8.36
2023-01-05T07:57:12.560Z,8.77
2023-01-05T08:02:12.142Z,8.76
2023-01-05T08:07:11.687Z,8.74
2023-01-05T08:12:10.529Z,8.87
2023-01-05T08:17:11.491Z,8.97
2023-01-05T08:22:10.299Z,9.10
2023-01-05T08:27:09.574Z,9.25
2023-01-05T08:32:08.866Z,9.41
2023-01-05T08:37:09.170Z,9.54
2023-01-05T08:42:07.949Z,9.77
2023-01-05T08:47:06.723Z,9.99
2023-01-05T08:52:07.500Z,10.32
2023-01-05T08:57:07.749Z,10.58
2023-01-05T09:02:06.711Z,10.33
2023-01-05T09:07:05.806Z,10.32
2023-01-05T09:12:04.918Z,10.53
2023-01-05T09:17:07.452Z,10.60
2023-01-05T09:22:06.573Z,10.55
2023-01-05T09:27:07.712Z,10.53
2023-01-05T09:32:09.764Z,11.08
2023-01-05T09:37:08.681Z,11.27
2023-01-05T09:42:13.196Z,11.35
2023-01-05T09:47:19.452Z,11.19
2023-01-05T09:52:22.460Z,11.07
2023-01-05T09:57:25.080Z,11.09
2023-01-05T10:02:33.972Z,11.21
2023-01-05T10:07:41.579Z,10.95
2023-01-05T10:13:03.501Z,10.95
2023-01-05T10:18:11.758Z,11.16
2023-01-05T10:23:19.927Z,11.15
2023-01-05T10:28:29.966Z,11.42
2023-01-05T10:33:53.589Z,11.62
2023-01-05T10:39:00.943Z,11.63
2023-01-05T10:44:22.254Z,12.03
2023-01-05T10:49:26.960Z,11.63
2023-01-05T10:54:35.413Z,12.06
2023-01-05T10:59:34.282Z,12.57
2023-01-05T11:04:35.824Z,12.62
2023-01-05T11:09:41.496Z,13.03
2023-01-05T11:14:44.773Z,12.75
2023-01-05T11:19:48.149Z,13.02
2023-01-05T11:24:51.149Z,13.04
2023-01-05T11:30:11.337Z,12.92
2023-01-05T11:35:19.715Z,13.17
2023-01-05T11:40:20.489Z,13.10
2023-01-05T11:45:22.157Z,12.97
2023-01-05T11:50:26.142Z,13.18
2023-01-05T11:55:34.017Z,13.17
2023-01-05T12:00:40.271Z,13.18
2023-01-05T12:05:49.810Z,12.91
2023-01-05T12:11:01.782Z,13.27
2023-01-05T12:16:13.804Z,12.94
2023-01-05T12:21:23.892Z,12.89
2023-01-05T12:26:28.286Z,13.16
2023-01-05T12:37:23.832Z,14.08
2023-01-05T12:42:54.351Z,14.64
2023-01-05T12:47:59.794Z,14.46
2023-01-05T12:53:08.952Z,14.59
2023-01-05T12:58:15.107Z,14.63
2023-01-05T13:03:23.812Z,14.69
2023-01-05T13:08:28.430Z,14.63
2023-01-05T13:13:32.230Z,14.90
2023-01-05T13:18:33.950Z,15.08
2023-01-05T13:23:38.738Z,15.17
2023-01-05T13:28:38.709Z,14.63
2023-01-05T13:33:57.243Z,14.47
2023-01-05T13:39:28.298Z,15.18
2023-01-05T13:45:05.344Z,14.80
2023-01-05T13:50:27.597Z,14.41
2023-01-05T13:55:28.767Z,14.44
2023-01-05T14:00:30.381Z,14.65
2023-01-05T14:05:33.453Z,14.50
2023-01-05T14:10:35.281Z,14.54
2023-01-05T14:15:40.434Z,14.55
2023-01-05T14:20:47.139Z,14.45
2023-01-05T14:25:52.858Z,13.85
2023-01-05T14:30:52.972Z,14.05
2023-01-05T14:35:51.754Z,13.87
2023-01-05T14:40:55.927Z,13.87
2023-01-05T14:46:06.054Z,13.48
2023-01-05T14:51:14.485Z,13.44
2023-01-05T14:56:21.105Z,12.97
2023-01-05T15:01:25.775Z,12.78
2023-01-05T15:06:36.763Z,12.74
2023-01-05T15:11:49.140Z,12.68
2023-01-05T15:17:15.852Z,12.55
2023-01-05T15:22:37.937Z,12.58
2023-01-05T15:28:13.154Z,12.48
2023-01-05T15:33:22.015Z,12.60
2023-01-05T15:38:22.753Z,12.60
2023-01-05T15:43:22.411Z,12.79
2023-01-05T15:48:28.946Z,12.85
2023-01-05T15:53:32.014Z,12.84
2023-01-05T15:58:31.646Z,12.63
2023-01-05T16:03:33.466Z,12.45
2023-01-05T16:08:35.014Z,12.29
2023-01-05T16:13:38.470Z,12.16
2023-01-05T16:18:45.984Z,12.09
2023-01-05T16:23:50.322Z,12.15
2023-01-05T16:28:49.054Z,12.02
2023-01-05T16:34:03.535Z,11.66
2023-01-05T16:39:24.174Z,11.67
2023-01-05T16:44:22.975Z,11.72
2023-01-05T16:49:39.107Z,11.93
2023-01-05T16:54:44.386Z,11.91
2023-01-05T16:59:46.941Z,11.79
2023-01-05T17:04:48.777Z,11.82
2023-01-05T17:09:47.828Z,11.72
2023-01-05T17:14:46.870Z,11.65
2023-01-05T17:19:51.539Z,11.81
2023-01-05T17:24:50.742Z,11.71
2023-01-05T17:29:49.545Z,11.54
2023-01-05T17:34:50.856Z,11.54
2023-01-05T17:39:49.661Z,11.34
2023-01-05T17:44:48.392Z,11.20
2023-01-05T17:49:47.222Z,11.28
2023-01-05T17:54:47.349Z,11.16
2023-01-05T17:59:46.103Z,11.34
2023-01-05T18:04:44.861Z,11.22
2023-01-05T18:09:43.666Z,11.27
2023-01-05T18:14:44.956Z,11.30
2023-01-05T18:19:43.893Z,11.36
2023-01-05T18:24:43.839Z,11.08
2023-01-05T18:29:45.429Z,11.14
2023-01-05T18:34:44.300Z,11.06
2023-01-05T18:39:43.466Z,10.89
2023-01-05T18:44:43.706Z,11.09
2023-01-05T18:49:42.452Z,11.11
2023-01-05T18:54:41.288Z,11.05
2023-01-05T18:59:40.164Z,11.19
2023-01-05T19:04:40.301Z,11.23
2023-01-05T19:09:39.314Z,11.13
2023-01-05T19:14:38.220Z,11.09
2023-01-05T19:19:37.166Z,11.08
2023-01-05T19:24:37.437Z,11.18
2023-01-05T19:29:36.227Z,11.05
2023-01-05T19:34:35.075Z,11.04
2023-01-05T19:39:34.770Z,10.93
2023-01-05T19:44:35.098Z,11.14
2023-01-05T19:49:34.498Z,11.03
2023-01-05T19:54:33.417Z,11.05
2023-01-05T19:59:34.096Z,10.80
2023-01-05T20:04:34.744Z,10.66
2023-01-05T20:09:33.791Z,10.88
2023-01-05T20:14:34.379Z,10.70
2023-01-05T20:19:36.651Z,10.58
2023-01-05T20:24:37.443Z,10.71
2023-01-05T20:29:36.412Z,10.74
2023-01-05T20:34:39.252Z,10.76
2023-01-05T20:39:40.201Z,10.69
2023-01-05T20:44:41.755Z,10.43
2023-01-05T20:49:42.675Z,10.47
2023-01-05T20:54:42.334Z,10.37
2023-01-05T20:59:41.507Z,10.39
2023-01-05T21:04:42.146Z,10.63
2023-01-05T21:09:42.641Z,10.81
2023-01-05T21:14:41.411Z,10.69
2023-01-05T21:19:41.607Z,10.59
2023-01-05T21:24:42.200Z,10.39
2023-01-05T21:29:41.084Z,10.35
2023-01-05T21:34:41.290Z,10.25
2023-01-05T21:39:40.163Z,10.24
2023-01-05T21:44:39.894Z,10.27
2023-01-05T21:49:38.703Z,10.10
2023-01-05T21:54:56.253Z,10.17
2023-01-05T21:59:55.309Z,10.14
2023-01-05T22:04:54.066Z,10.12
2023-01-05T22:09:54.200Z,10.28
2023-01-05T22:14:52.957Z,10.19
2023-01-05T22:19:53.391Z,10.24
2023-01-05T22:24:53.574Z,10.26
2023-01-05T22:29:52.571Z,10.07
2023-01-05T22:34:51.403Z,10.26
2023-01-05T22:39:50.221Z,10.27
2023-01-05T22:44:50.407Z,10.07
2023-01-05T22:49:49.293Z,10.02
2023-01-05T22:54:48.069Z,9.92
2023-01-05T22:59:46.941Z,10.00
2023-01-05T23:04:47.282Z,9.97
2023-01-05T23:09:46.089Z,9.90
2023-01-05T23:14:44.851Z,9.89
2023-01-05T23:19:43.549Z,9.61
2023-01-05T23:24:43.764Z,9.71
2023-01-05T23:29:42.561Z,9.76
2023-01-05T23:34:41.316Z,9.67
2023-01-05T23:39:40.114Z,9.69
2023-01-05T23:44:40.249Z,9.66
2023-01-05T23:49:40.121Z,9.66
2023-01-05T23:54:39.082Z,9.37
2023-01-05T23:59:39.222Z,9.23
